sensor_id;sensor_type;location;lat;lon;timestamp;pressure;altitude;pressure_sealevel;temperature;humidity
8894;BME280;4483;48.622;9.230;2023-07-28T00:02:13;97199.84;;;16.09;100.00
8894;BME280;4483;48.622;9.230;2023-07-28T00:04:40;97194.13;;;16.04;100.00
8894;BME280;4483;48.622;9.230;2023-07-28T00:07:06;97196.94;;;16.01;100.00
8894;BME280;4483;48.622;9.230;2023-07-28T00:09:33;97196.34;;;15.98;100.00
8894;BME280;4483;48.622;9.230;2023-07-28T00:12:00;97188.06;;;15.93;100.00
8894;BME280;4483;48.622;9.230;2023-07-28T00:14:27;97181.44;;;15.89;100.00
8894;BME280;4483;48.622;9.230;2023-07-28T00:16:57;97192.00;;;15.86;100.00
8894;BME280;4483;48.622;9.230;2023-07-28T00:19:23;97194.72;;;15.84;100.00
8894;BME280;4483;48.622;9.230;2023-07-28T00:21:50;97198.41;;;15.82;100.00
8894;BME280;4483;48.622;9.230;2023-07-28T00:24:18;97195.06;;;15.80;100.00
8894;BME280;4483;48.622;9.230;2023-07-28T00:26:44;97203.06;;;15.77;100.00
8894;BME280;4483;48.622;9.230;2023-07-28T00:29:11;97199.97;;;15.72;100.00
8894;BME280;4483;48.622;9.230;2023-07-28T00:31:38;97198.53;;;15.68;100.00
8894;BME280;4483;48.622;9.230;2023-07-28T00:34:06;97197.91;;;15.64;100.00
8894;BME280;4483;48.622;9.230;2023-07-28T00:36:32;97200.63;;;15.63;100.00
8894;BME280;4483;48.622;9.230;2023-07-28T00:38:59;97205.09;;;15.61;100.00
8894;BME280;4483;48.622;9.230;2023-07-28T00:41:25;97204.59;;;15.56;100.00
8894;BME280;4483;48.622;9.230;2023-07-28T00:43:52;97193.72;;;15.51;100.00
8894;BME280;4483;48.622;9.230;2023-07-28T00:46:19;97196.50;;;15.48;100.00
8894;BME280;4483;48.622;9.230;2023-07-28T00:48:45;97195.78;;;15.46;100.00
8894;BME280;4483;48.622;9.230;2023-07-28T00:51:13;97195.28;;;15.41;100.00
8894;BME280;4483;48.622;9.230;2023-07-28T00:53:40;97195.28;;;15.41;100.00
8894;BME280;4483;48.622;9.230;2023-07-28T00:56:07;97197.97;;;15.39;100.00
8894;BME280;4483;48.622;9.230;2023-07-28T00:58:34;97196.31;;;15.38;100.00
8894;BME280;4483;48.622;9.230;2023-07-28T01:01:00;97202.53;;;15.36;100.00
8894;BME280;4483;48.622;9.230;2023-07-28T01:03:27;97195.88;;;15.32;100.00
8894;BME280;4483;48.622;9.230;2023-07-28T01:06:02;97196.91;;;15.29;100.00
8894;BME280;4483;48.622;9.230;2023-07-28T01:08:40;97190.94;;;15.29;100.00
8894;BME280;4483;48.622;9.230;2023-07-28T01:11:08;97193.72;;;15.26;100.00
8894;BME280;4483;48.622;9.230;2023-07-28T01:13:35;97192.97;;;15.24;100.00
8894;BME280;4483;48.622;9.230;2023-07-28T01:16:01;97184.59;;;15.20;100.00
8894;BME280;4483;48.622;9.230;2023-07-28T01:18:28;97182.09;;;15.19;100.00
8894;BME280;4483;48.622;9.230;2023-07-28T01:20:56;97190.09;;;15.16;100.00
8894;BME280;4483;48.622;9.230;2023-07-28T01:23:33;97191.13;;;15.13;100.00
8894;BME280;4483;48.622;9.230;2023-07-28T01:26:07;97187.00;;;15.10;100.00
8894;BME280;4483;48.622;9.230;2023-07-28T01:28:36;97185.56;;;15.06;100.00
8894;BME280;4483;48.622;9.230;2023-07-28T01:31:05;97193.22;;;15.08;100.00
8894;BME280;4483;48.622;9.230;2023-07-28T01:33:32;97188.25;;;15.05;100.00
8894;BME280;4483;48.622;9.230;2023-07-28T01:35:59;97193.53;;;15.03;100.00
8894;BME280;4483;48.622;9.230;2023-07-28T01:38:26;97195.44;;;15.01;100.00
8894;BME280;4483;48.622;9.230;2023-07-28T01:40:53;97194.59;;;15.01;100.00
8894;BME280;4483;48.622;9.230;2023-07-28T01:43:20;97181.72;;;14.99;100.00
8894;BME280;4483;48.622;9.230;2023-07-28T01:45:48;97184.41;;;14.98;100.00
8894;BME280;4483;48.622;9.230;2023-07-28T01:48:14;97182.88;;;14.95;100.00
8894;BME280;4483;48.622;9.230;2023-07-28T01:50:41;97182.13;;;14.93;100.00
8894;BME280;4483;48.622;9.230;2023-07-28T01:53:08;97184.94;;;14.90;100.00
8894;BME280;4483;48.622;9.230;2023-07-28T01:55:35;97171.25;;;14.88;100.00
8894;BME280;4483;48.622;9.230;2023-07-28T01:58:01;97171.44;;;14.85;100.00
8894;BME280;4483;48.622;9.230;2023-07-28T02:00:28;97160.44;;;14.82;100.00
8894;BME280;4483;48.622;9.230;2023-07-28T02:02:56;97158.19;;;14.77;100.00
8894;BME280;4483;48.622;9.230;2023-07-28T02:05:24;97165.75;;;14.80;100.00
8894;BME280;4483;48.622;9.230;2023-07-28T02:07:50;97153.81;;;14.78;100.00
8894;BME280;4483;48.622;9.230;2023-07-28T02:10:17;97157.47;;;14.75;100.00
8894;BME280;4483;48.622;9.230;2023-07-28T02:12:44;97163.56;;;14.74;100.00
8894;BME280;4483;48.622;9.230;2023-07-28T02:15:11;97156.72;;;14.73;100.00
8894;BME280;4483;48.622;9.230;2023-07-28T02:17:38;97161.19;;;14.71;100.00
8894;BME280;4483;48.622;9.230;2023-07-28T02:20:07;97164.81;;;14.69;100.00
8894;BME280;4483;48.622;9.230;2023-07-28T02:22:36;97159.00;;;14.65;100.00
8894;BME280;4483;48.622;9.230;2023-07-28T02:25:03;97149.78;;;14.61;100.00
8894;BME280;4483;48.622;9.230;2023-07-28T02:27:30;97166.25;;;14.60;100.00
8894;BME280;4483;48.622;9.230;2023-07-28T02:29:56;97163.16;;;14.55;100.00
8894;BME280;4483;48.622;9.230;2023-07-28T02:32:23;97168.44;;;14.54;100.00
8894;BME280;4483;48.622;9.230;2023-07-28T02:34:50;97168.63;;;14.51;100.00
8894;BME280;4483;48.622;9.230;2023-07-28T02:37:18;97167.09;;;14.48;100.00
8894;BME280;4483;48.622;9.230;2023-07-28T02:39:44;97168.00;;;14.47;100.00
8894;BME280;4483;48.622;9.230;2023-07-28T02:42:11;97160.44;;;14.44;100.00
8894;BME280;4483;48.622;9.230;2023-07-28T02:44:38;97162.31;;;14.42;100.00
8894;BME280;4483;48.622;9.230;2023-07-28T02:47:05;97154.81;;;14.38;100.00
8894;BME280;4483;48.622;9.230;2023-07-28T02:49:32;97167.72;;;14.39;100.00
8894;BME280;4483;48.622;9.230;2023-07-28T02:51:58;97180.66;;;14.39;100.00
8894;BME280;4483;48.622;9.230;2023-07-28T02:54:26;97178.06;;;14.39;100.00
8894;BME280;4483;48.622;9.230;2023-07-28T02:56:53;97182.53;;;14.37;100.00
8894;BME280;4483;48.622;9.230;2023-07-28T02:59:20;97183.44;;;14.36;100.00
8894;BME280;4483;48.622;9.230;2023-07-28T03:01:47;97185.41;;;14.33;100.00
8894;BME280;4483;48.622;9.230;2023-07-28T03:04:17;97183.75;;;14.32;100.00
8894;BME280;4483;48.622;9.230;2023-07-28T03:06:44;97191.53;;;14.32;100.00
8894;BME280;4483;48.622;9.230;2023-07-28T03:09:10;97192.56;;;14.29;100.00
8894;BME280;4483;48.622;9.230;2023-07-28T03:11:38;97201.25;;;14.28;100.00
8894;BME280;4483;48.622;9.230;2023-07-28T03:14:05;97208.09;;;14.29;100.00
8894;BME280;4483;48.622;9.230;2023-07-28T03:16:31;97215.13;;;14.27;100.00
8894;BME280;4483;48.622;9.230;2023-07-28T03:18:58;97221.06;;;14.29;100.00
8894;BME280;4483;48.622;9.230;2023-07-28T03:21:25;97217.63;;;14.29;100.00
8894;BME280;4483;48.622;9.230;2023-07-28T03:23:51;97216.81;;;14.28;100.00
8894;BME280;4483;48.622;9.230;2023-07-28T03:26:18;97215.75;;;14.31;100.00
8894;BME280;4483;48.622;9.230;2023-07-28T03:28:46;97216.81;;;14.28;100.00
8894;BME280;4483;48.622;9.230;2023-07-28T03:31:13;97212.53;;;14.27;100.00
8894;BME280;4483;48.622;9.230;2023-07-28T03:33:39;97218.56;;;14.28;100.00
8894;BME280;4483;48.622;9.230;2023-07-28T03:36:06;97218.63;;;14.26;100.00
8894;BME280;4483;48.622;9.230;2023-07-28T03:38:33;97227.31;;;14.25;100.00
8894;BME280;4483;48.622;9.230;2023-07-28T03:41:00;97220.50;;;14.24;100.00
8894;BME280;4483;48.622;9.230;2023-07-28T03:43:26;97231.59;;;14.26;100.00
8894;BME280;4483;48.622;9.230;2023-07-28T03:45:54;97220.13;;;14.30;100.00
8894;BME280;4483;48.622;9.230;2023-07-28T03:48:21;97225.31;;;14.30;100.00
8894;BME280;4483;48.622;9.230;2023-07-28T03:50:48;97224.38;;;14.31;100.00
8894;BME280;4483;48.622;9.230;2023-07-28T03:53:14;97219.19;;;14.31;100.00
8894;BME280;4483;48.622;9.230;2023-07-28T03:55:41;97220.13;;;14.30;100.00
8894;BME280;4483;48.622;9.230;2023-07-28T03:58:07;97229.66;;;14.30;100.00
8894;BME280;4483;48.622;9.230;2023-07-28T04:00:34;97228.63;;;14.32;100.00
8894;BME280;4483;48.622;9.230;2023-07-28T04:03:02;97222.53;;;14.33;100.00
8894;BME280;4483;48.622;9.230;2023-07-28T04:05:29;97226.66;;;14.36;100.00
8894;BME280;4483;48.622;9.230;2023-07-28T04:07:55;97230.09;;;14.36;100.00
8894;BME280;4483;48.622;9.230;2023-07-28T04:10:22;97236.00;;;14.38;100.00
8894;BME280;4483;48.622;9.230;2023-07-28T04:12:49;97234.13;;;14.40;100.00
8894;BME280;4483;48.622;9.230;2023-07-28T04:15:16;97240.06;;;14.42;100.00
8894;BME280;4483;48.622;9.230;2023-07-28T04:17:42;97233.13;;;14.43;100.00
8894;BME280;4483;48.622;9.230;2023-07-28T04:20:11;97235.41;;;14.47;100.00
8894;BME280;4483;48.622;9.230;2023-07-28T04:22:37;97236.97;;;14.50;100.00
8894;BME280;4483;48.622;9.230;2023-07-28T04:25:05;97238.44;;;14.54;100.00
8894;BME280;4483;48.622;9.230;2023-07-28T04:27:32;97231.28;;;14.57;100.00
8894;BME280;4483;48.622;9.230;2023-07-28T04:29:58;97229.31;;;14.61;100.00
8894;BME280;4483;48.622;9.230;2023-07-28T04:32:25;97235.13;;;14.64;100.00
8894;BME280;4483;48.622;9.230;2023-07-28T04:34:52;97229.63;;;14.69;100.00
8894;BME280;4483;48.622;9.230;2023-07-28T04:37:21;97227.66;;;14.72;100.00
8894;BME280;4483;48.622;9.230;2023-07-28T04:39:47;97223.19;;;14.74;100.00
8894;BME280;4483;48.622;9.230;2023-07-28T04:42:14;97224.75;;;14.77;100.00
8894;BME280;4483;48.622;9.230;2023-07-28T04:44:41;97218.34;;;14.82;100.00
8894;BME280;4483;48.622;9.230;2023-07-28T04:47:08;97214.63;;;14.86;100.00
8894;BME280;4483;48.622;9.230;2023-07-28T04:49:34;97223.84;;;14.90;100.00
8894;BME280;4483;48.622;9.230;2023-07-28T04:52:01;97224.38;;;14.95;100.00
8894;BME280;4483;48.622;9.230;2023-07-28T04:54:29;97232.88;;;14.97;100.00
8894;BME280;4483;48.622;9.230;2023-07-28T04:56:55;97223.22;;;14.99;100.00
8894;BME280;4483;48.622;9.230;2023-07-28T04:59:22;97230.06;;;15.00;100.00
8894;BME280;4483;48.622;9.230;2023-07-28T05:01:48;97230.91;;;15.01;100.00
8894;BME280;4483;48.622;9.230;2023-07-28T05:04:15;97221.44;;;15.00;100.00
8894;BME280;4483;48.622;9.230;2023-07-28T05:06:41;97228.94;;;15.04;100.00
8894;BME280;4483;48.622;9.230;2023-07-28T05:09:08;97231.19;;;15.09;100.00
8894;BME280;4483;48.622;9.230;2023-07-28T05:11:36;97233.50;;;15.13;100.00
8894;BME280;4483;48.622;9.230;2023-07-28T05:14:03;97235.75;;;15.18;100.00
8894;BME280;4483;48.622;9.230;2023-07-28T05:16:31;97251.03;;;15.23;100.00
8894;BME280;4483;48.622;9.230;2023-07-28T05:18:58;97247.28;;;15.27;100.00
8894;BME280;4483;48.622;9.230;2023-07-28T05:21:24;97248.81;;;15.29;100.00
8894;BME280;4483;48.622;9.230;2023-07-28T05:23:51;97247.91;;;15.30;100.00
8894;BME280;4483;48.622;9.230;2023-07-28T05:26:17;97247.81;;;15.32;100.00
8894;BME280;4483;48.622;9.230;2023-07-28T05:28:45;97238.16;;;15.34;100.00
8894;BME280;4483;48.622;9.230;2023-07-28T05:31:12;97232.72;;;15.37;100.00
8894;BME280;4483;48.622;9.230;2023-07-28T05:33:40;97225.56;;;15.40;100.00
8894;BME280;4483;48.622;9.230;2023-07-28T05:36:07;97242.50;;;15.46;100.00
8894;BME280;4483;48.622;9.230;2023-07-28T05:38:33;97235.44;;;15.48;100.00
8894;BME280;4483;48.622;9.230;2023-07-28T05:41:01;97235.44;;;15.48;100.00
8894;BME280;4483;48.622;9.230;2023-07-28T05:43:28;97242.09;;;15.52;100.00
8894;BME280;4483;48.622;9.230;2023-07-28T05:45:57;97245.31;;;15.55;100.00
8894;BME280;4483;48.622;9.230;2023-07-28T05:48:23;97245.09;;;15.58;100.00
8894;BME280;4483;48.622;9.230;2023-07-28T05:50:50;97242.41;;;15.60;100.00
8894;BME280;4483;48.622;9.230;2023-07-28T05:53:19;97248.09;;;15.65;100.00
8894;BME280;4483;48.622;9.230;2023-07-28T05:55:46;97242.78;;;15.66;100.00
8894;BME280;4483;48.622;9.230;2023-07-28T05:58:12;97249.66;;;15.67;100.00
8894;BME280;4483;48.622;9.230;2023-07-28T06:00:39;97253.59;;;15.73;100.00
8894;BME280;4483;48.622;9.230;2023-07-28T06:03:09;97261.88;;;15.78;100.00
8894;BME280;4483;48.622;9.230;2023-07-28T06:05:38;97262.38;;;15.83;100.00
8894;BME280;4483;48.622;9.230;2023-07-28T06:08:04;97263.09;;;15.85;100.00
8894;BME280;4483;48.622;9.230;2023-07-28T06:10:31;97261.94;;;15.89;100.00
8894;BME280;4483;48.622;9.230;2023-07-28T06:12:58;97259.97;;;15.92;100.00
8894;BME280;4483;48.622;9.230;2023-07-28T06:15:24;97271.81;;;15.96;100.00
8894;BME280;4483;48.622;9.230;2023-07-28T06:17:51;97272.41;;;16.00;100.00
8894;BME280;4483;48.622;9.230;2023-07-28T06:20:19;97275.63;;;16.03;100.00
8894;BME280;4483;48.622;9.230;2023-07-28T06:22:45;97274.25;;;16.10;100.00
8894;BME280;4483;48.622;9.230;2023-07-28T06:25:12;97275.34;;;16.19;100.00
8894;BME280;4483;48.622;9.230;2023-07-28T06:27:39;97274.91;;;16.25;100.00
8894;BME280;4483;48.622;9.230;2023-07-28T06:30:07;97278.72;;;16.32;100.00
8894;BME280;4483;48.622;9.230;2023-07-28T06:32:33;97279.22;;;16.37;100.00
8894;BME280;4483;48.622;9.230;2023-07-28T06:35:00;97282.53;;;16.39;100.00
8894;BME280;4483;48.622;9.230;2023-07-28T06:37:29;97282.53;;;16.39;100.00
8894;BME280;4483;48.622;9.230;2023-07-28T06:39:56;97294.59;;;16.40;100.00
8894;BME280;4483;48.622;9.230;2023-07-28T06:42:23;97299.47;;;16.45;100.00
8894;BME280;4483;48.622;9.230;2023-07-28T06:44:50;97309.34;;;16.52;100.00
8894;BME280;4483;48.622;9.230;2023-07-28T06:47:17;97314.81;;;16.60;100.00
8894;BME280;4483;48.622;9.230;2023-07-28T06:49:44;97314.16;;;16.69;100.00
8894;BME280;4483;48.622;9.230;2023-07-28T06:52:11;97315.47;;;16.75;100.00
8894;BME280;4483;48.622;9.230;2023-07-28T06:54:39;97317.53;;;16.82;100.00
8894;BME280;4483;48.622;9.230;2023-07-28T06:57:06;97314.44;;;16.88;100.00
8894;BME280;4483;48.622;9.230;2023-07-28T06:59:32;97317.56;;;16.93;100.00
8894;BME280;4483;48.622;9.230;2023-07-28T07:01:59;97305.16;;;16.97;100.00
8894;BME280;4483;48.622;9.230;2023-07-28T07:04:26;97308.34;;;17.00;100.00
8894;BME280;4483;48.622;9.230;2023-07-28T07:06:53;97314.03;;;17.05;100.00
8894;BME280;4483;48.622;9.230;2023-07-28T07:09:20;97317.81;;;17.13;100.00
8894;BME280;4483;48.622;9.230;2023-07-28T07:11:48;97313.72;;;17.21;100.00
8894;BME280;4483;48.622;9.230;2023-07-28T07:14:14;97323.09;;;17.35;100.00
8894;BME280;4483;48.622;9.230;2023-07-28T07:16:41;97317.06;;;17.45;100.00
8894;BME280;4483;48.622;9.230;2023-07-28T07:19:08;97323.13;;;17.57;100.00
8894;BME280;4483;48.622;9.230;2023-07-28T07:21:35;97314.88;;;17.63;100.00
8894;BME280;4483;48.622;9.230;2023-07-28T07:24:02;97318.66;;;17.70;100.00
8894;BME280;4483;48.622;9.230;2023-07-28T07:26:29;97321.84;;;17.73;100.00
8894;BME280;4483;48.622;9.230;2023-07-28T07:28:58;97326.00;;;17.76;100.00
8894;BME280;4483;48.622;9.230;2023-07-28T07:31:25;97316.63;;;17.73;100.00
8894;BME280;4483;48.622;9.230;2023-07-28T07:33:51;97327.44;;;17.80;100.00
8894;BME280;4483;48.622;9.230;2023-07-28T07:36:19;97327.19;;;17.83;100.00
8894;BME280;4483;48.622;9.230;2023-07-28T07:38:46;97330.97;;;17.90;100.00
8894;BME280;4483;48.622;9.230;2023-07-28T07:41:14;97329.31;;;18.00;100.00
8894;BME280;4483;48.622;9.230;2023-07-28T07:43:44;97323.59;;;18.06;100.00
8894;BME280;4483;48.622;9.230;2023-07-28T07:46:13;97329.97;;;18.13;100.00
8894;BME280;4483;48.622;9.230;2023-07-28T07:48:40;97331.53;;;18.16;100.00
8894;BME280;4483;48.622;9.230;2023-07-28T07:51:07;97335.19;;;18.24;100.00
8894;BME280;4483;48.622;9.230;2023-07-28T07:53:34;97340.06;;;18.29;100.00
8894;BME280;4483;48.622;9.230;2023-07-28T07:56:02;97339.66;;;18.33;100.00
8894;BME280;4483;48.622;9.230;2023-07-28T07:58:29;97342.75;;;18.38;100.00
8894;BME280;4483;48.622;9.230;2023-07-28T08:00:56;97343.97;;;18.45;100.00
8894;BME280;4483;48.622;9.230;2023-07-28T08:03:24;97349.03;;;18.47;100.00
8894;BME280;4483;48.622;9.230;2023-07-28T08:05:52;97343.00;;;18.46;100.00
8894;BME280;4483;48.622;9.230;2023-07-28T08:08:19;97340.38;;;18.46;100.00
8894;BME280;4483;48.622;9.230;2023-07-28T08:10:46;97347.16;;;18.49;100.00
8894;BME280;4483;48.622;9.230;2023-07-28T08:13:13;97344.28;;;18.52;100.00
8894;BME280;4483;48.622;9.230;2023-07-28T08:15:40;97345.44;;;18.59;100.00
8894;BME280;4483;48.622;9.230;2023-07-28T08:18:08;97346.69;;;18.75;100.00
8894;BME280;4483;48.622;9.230;2023-07-28T08:20:37;97333.88;;;18.83;100.00
8894;BME280;4483;48.622;9.230;2023-07-28T08:23:03;97347.03;;;19.14;100.00
8894;BME280;4483;48.622;9.230;2023-07-28T08:25:30;97355.00;;;19.53;100.00
8894;BME280;4483;48.622;9.230;2023-07-28T08:27:57;97348.06;;;19.93;100.00
8894;BME280;4483;48.622;9.230;2023-07-28T08:30:24;97345.75;;;20.40;100.00
8894;BME280;4483;48.622;9.230;2023-07-28T08:32:51;97341.25;;;20.99;100.00
8894;BME280;4483;48.622;9.230;2023-07-28T08:35:18;97336.69;;;21.49;100.00
8894;BME280;4483;48.622;9.230;2023-07-28T08:37:46;97343.09;;;21.83;100.00
8894;BME280;4483;48.622;9.230;2023-07-28T08:40:13;97343.03;;;22.02;100.00
8894;BME280;4483;48.622;9.230;2023-07-28T08:42:40;97350.63;;;22.32;100.00
8894;BME280;4483;48.622;9.230;2023-07-28T08:45:08;97340.00;;;22.51;100.00
8894;BME280;4483;48.622;9.230;2023-07-28T08:47:35;97354.41;;;22.74;98.06
8894;BME280;4483;48.622;9.230;2023-07-28T08:50:02;97352.50;;;23.20;94.35
8894;BME280;4483;48.622;9.230;2023-07-28T08:52:29;97349.94;;;23.97;91.43
8894;BME280;4483;48.622;9.230;2023-07-28T08:54:57;97347.81;;;24.75;84.10
8894;BME280;4483;48.622;9.230;2023-07-28T08:57:24;97346.69;;;25.10;81.55
8894;BME280;4483;48.622;9.230;2023-07-28T08:59:51;97342.91;;;25.69;78.46
8894;BME280;4483;48.622;9.230;2023-07-28T09:02:19;97345.56;;;26.24;72.76
8894;BME280;4483;48.622;9.230;2023-07-28T09:04:47;97338.72;;;26.76;70.85
8894;BME280;4483;48.622;9.230;2023-07-28T09:07:14;97333.09;;;27.02;68.38
8894;BME280;4483;48.622;9.230;2023-07-28T09:09:41;97335.44;;;27.42;66.08
8894;BME280;4483;48.622;9.230;2023-07-28T09:12:09;97352.56;;;27.68;61.73
8894;BME280;4483;48.622;9.230;2023-07-28T09:14:37;97345.72;;;27.59;58.78
8894;BME280;4483;48.622;9.230;2023-07-28T09:17:08;97346.13;;;27.26;59.81
8894;BME280;4483;48.622;9.230;2023-07-28T09:19:49;97348.94;;;27.02;60.91
8894;BME280;4483;48.622;9.230;2023-07-28T09:22:15;97338.28;;;26.64;60.86
8894;BME280;4483;48.622;9.230;2023-07-28T09:24:42;97340.78;;;26.19;62.24
8894;BME280;4483;48.622;9.230;2023-07-28T09:27:19;97336.28;;;25.81;62.69
8894;BME280;4483;48.622;9.230;2023-07-28T09:29:47;97340.78;;;25.56;64.17
8894;BME280;4483;48.622;9.230;2023-07-28T09:32:14;97340.97;;;25.47;64.43
8894;BME280;4483;48.622;9.230;2023-07-28T09:34:41;97342.94;;;25.45;64.56
8894;BME280;4483;48.622;9.230;2023-07-28T09:37:09;97344.59;;;25.38;65.01
8894;BME280;4483;48.622;9.230;2023-07-28T09:39:36;97347.19;;;25.22;65.46
8894;BME280;4483;48.622;9.230;2023-07-28T09:42:04;97339.28;;;25.06;66.45
8894;BME280;4483;48.622;9.230;2023-07-28T09:44:35;97340.44;;;25.11;65.58
8894;BME280;4483;48.622;9.230;2023-07-28T09:47:03;97332.84;;;25.24;66.11
8894;BME280;4483;48.622;9.230;2023-07-28T09:49:38;97345.91;;;25.42;65.22
8894;BME280;4483;48.622;9.230;2023-07-28T09:52:08;97340.13;;;25.46;65.20
8894;BME280;4483;48.622;9.230;2023-07-28T09:54:38;97335.50;;;25.48;64.08
8894;BME280;4483;48.622;9.230;2023-07-28T09:57:08;97342.91;;;25.61;63.44
8894;BME280;4483;48.622;9.230;2023-07-28T09:59:42;97341.06;;;25.77;63.10
8894;BME280;4483;48.622;9.230;2023-07-28T10:02:09;97334.28;;;25.83;62.82
8894;BME280;4483;48.622;9.230;2023-07-28T10:04:35;97344.66;;;25.93;62.90
8894;BME280;4483;48.622;9.230;2023-07-28T10:07:04;97339.88;;;25.96;62.52
8894;BME280;4483;48.622;9.230;2023-07-28T10:09:31;97346.63;;;26.07;62.88
8894;BME280;4483;48.622;9.230;2023-07-28T10:11:59;97335.66;;;26.26;62.12
8894;BME280;4483;48.622;9.230;2023-07-28T10:14:27;97338.03;;;26.51;61.21
8894;BME280;4483;48.622;9.230;2023-07-28T10:16:58;97344.13;;;27.05;60.57
8894;BME280;4483;48.622;9.230;2023-07-28T10:19:25;97348.59;;;27.27;59.35
8894;BME280;4483;48.622;9.230;2023-07-28T10:21:59;97351.06;;;27.29;58.48
8894;BME280;4483;48.622;9.230;2023-07-28T10:24:49;97356.16;;;27.16;58.33
8894;BME280;4483;48.622;9.230;2023-07-28T10:27:28;97353.31;;;26.95;58.59
8894;BME280;4483;48.622;9.230;2023-07-28T10:29:58;97362.97;;;26.79;58.73
8894;BME280;4483;48.622;9.230;2023-07-28T10:32:27;97354.00;;;26.58;57.73
8894;BME280;4483;48.622;9.230;2023-07-28T10:34:59;97351.78;;;26.39;57.70
8894;BME280;4483;48.622;9.230;2023-07-28T10:37:26;97366.16;;;26.36;58.59
8894;BME280;4483;48.622;9.230;2023-07-28T10:40:23;97356.16;;;26.54;58.76
8894;BME280;4483;48.622;9.230;2023-07-28T10:42:51;97359.53;;;26.79;58.61
8894;BME280;4483;48.622;9.230;2023-07-28T10:45:18;97351.41;;;27.03;57.85
8894;BME280;4483;48.622;9.230;2023-07-28T10:47:46;97358.69;;;27.32;57.71
8894;BME280;4483;48.622;9.230;2023-07-28T10:50:14;97360.75;;;27.59;57.45
8894;BME280;4483;48.622;9.230;2023-07-28T10:52:41;97352.31;;;27.78;56.39
8894;BME280;4483;48.622;9.230;2023-07-28T10:55:12;97352.84;;;27.88;54.71
8894;BME280;4483;48.622;9.230;2023-07-28T10:57:41;97354.53;;;27.89;54.95
8894;BME280;4483;48.622;9.230;2023-07-28T11:00:09;97345.09;;;27.87;54.79
8894;BME280;4483;48.622;9.230;2023-07-28T11:02:38;97355.03;;;27.70;55.17
8894;BME280;4483;48.622;9.230;2023-07-28T11:05:10;97347.53;;;27.59;55.03
8894;BME280;4483;48.622;9.230;2023-07-28T11:07:38;97357.75;;;27.62;55.41
8894;BME280;4483;48.622;9.230;2023-07-28T11:10:05;97356.84;;;27.69;55.66
8894;BME280;4483;48.622;9.230;2023-07-28T11:12:33;97361.25;;;27.77;55.38
8894;BME280;4483;48.622;9.230;2023-07-28T11:14:59;97359.25;;;27.79;55.04
8894;BME280;4483;48.622;9.230;2023-07-28T11:17:26;97360.06;;;27.65;55.07
8894;BME280;4483;48.622;9.230;2023-07-28T11:19:53;97361.56;;;27.45;55.67
8894;BME280;4483;48.622;9.230;2023-07-28T11:22:21;97356.72;;;27.26;56.15
8894;BME280;4483;48.622;9.230;2023-07-28T11:24:51;97359.03;;;27.06;56.98
8894;BME280;4483;48.622;9.230;2023-07-28T11:27:17;97353.19;;;26.88;57.55
8894;BME280;4483;48.622;9.230;2023-07-28T11:29:44;97340.56;;;26.67;57.89
8894;BME280;4483;48.622;9.230;2023-07-28T11:32:12;97349.25;;;26.53;58.46
8894;BME280;4483;48.622;9.230;2023-07-28T11:34:41;97350.41;;;26.51;58.95
8894;BME280;4483;48.622;9.230;2023-07-28T11:37:09;97351.81;;;26.61;58.23
8894;BME280;4483;48.622;9.230;2023-07-28T11:39:39;97352.28;;;26.42;58.73
8894;BME280;4483;48.622;9.230;2023-07-28T11:42:07;97354.34;;;26.24;59.44
8894;BME280;4483;48.622;9.230;2023-07-28T11:44:35;97360.81;;;26.06;60.05
8894;BME280;4483;48.622;9.230;2023-07-28T11:47:05;97381.78;;;25.83;60.97
8894;BME280;4483;48.622;9.230;2023-07-28T11:49:32;97371.59;;;25.64;62.49
8894;BME280;4483;48.622;9.230;2023-07-28T11:51:58;97377.22;;;25.45;63.33
8894;BME280;4483;48.622;9.230;2023-07-28T11:54:26;97389.03;;;25.33;64.70
8894;BME280;4483;48.622;9.230;2023-07-28T11:56:57;97390.38;;;25.21;67.10
8894;BME280;4483;48.622;9.230;2023-07-28T11:59:23;97395.59;;;24.97;69.88
8894;BME280;4483;48.622;9.230;2023-07-28T12:01:54;97405.09;;;24.73;71.10
8894;BME280;4483;48.622;9.230;2023-07-28T12:04:25;97411.22;;;24.40;73.02
8894;BME280;4483;48.622;9.230;2023-07-28T12:07:08;97406.44;;;24.10;75.34
8894;BME280;4483;48.622;9.230;2023-07-28T12:09:50;97401.03;;;23.86;77.72
8894;BME280;4483;48.622;9.230;2023-07-28T12:12:20;97398.94;;;23.72;79.11
8894;BME280;4483;48.622;9.230;2023-07-28T12:14:47;97389.84;;;23.66;80.90
8894;BME280;4483;48.622;9.230;2023-07-28T12:17:17;97394.75;;;23.61;82.02
8894;BME280;4483;48.622;9.230;2023-07-28T12:19:55;97383.22;;;23.54;83.03
8894;BME280;4483;48.622;9.230;2023-07-28T12:22:22;97377.06;;;23.46;83.37
8894;BME280;4483;48.622;9.230;2023-07-28T12:24:49;97386.41;;;23.40;84.22
8894;BME280;4483;48.622;9.230;2023-07-28T12:27:16;97384.88;;;23.38;85.44
8894;BME280;4483;48.622;9.230;2023-07-28T12:29:44;97390.13;;;23.38;86.06
8894;BME280;4483;48.622;9.230;2023-07-28T12:32:11;97387.81;;;23.35;86.38
8894;BME280;4483;48.622;9.230;2023-07-28T12:34:38;97385.47;;;23.32;87.63
8894;BME280;4483;48.622;9.230;2023-07-28T12:37:05;97386.06;;;23.26;87.62
8894;BME280;4483;48.622;9.230;2023-07-28T12:39:33;97382.38;;;23.19;89.07
8894;BME280;4483;48.622;9.230;2023-07-28T12:42:00;97378.31;;;23.24;90.21
8894;BME280;4483;48.622;9.230;2023-07-28T12:44:27;97374.28;;;23.30;90.10
8894;BME280;4483;48.622;9.230;2023-07-28T12:46:55;97382.41;;;23.36;89.52
8894;BME280;4483;48.622;9.230;2023-07-28T12:49:22;97381.25;;;23.39;89.66
8894;BME280;4483;48.622;9.230;2023-07-28T12:51:48;97381.13;;;23.40;90.03
8894;BME280;4483;48.622;9.230;2023-07-28T12:54:15;97378.50;;;23.40;89.78
8894;BME280;4483;48.622;9.230;2023-07-28T12:56:42;97376.84;;;23.39;90.28
8894;BME280;4483;48.622;9.230;2023-07-28T12:59:08;97376.16;;;23.37;90.39
8894;BME280;4483;48.622;9.230;2023-07-28T13:01:37;97371.22;;;23.34;90.49
8894;BME280;4483;48.622;9.230;2023-07-28T13:04:05;97371.28;;;23.25;90.66
8894;BME280;4483;48.622;9.230;2023-07-28T13:06:32;97373.81;;;23.17;90.74
8894;BME280;4483;48.622;9.230;2023-07-28T13:08:59;97379.28;;;23.06;91.47
8894;BME280;4483;48.622;9.230;2023-07-28T13:11:25;97373.81;;;22.99;92.33
8894;BME280;4483;48.622;9.230;2023-07-28T13:13:52;97386.91;;;23.09;92.71
8894;BME280;4483;48.622;9.230;2023-07-28T13:16:19;97399.50;;;23.23;93.92
8894;BME280;4483;48.622;9.230;2023-07-28T13:18:45;97399.31;;;23.34;95.08